createdAt,value
2022-11-27T09:33:14.759Z,9.38
2022-11-27T09:34:17.737Z,6.50
2022-11-27T09:35:22.767Z,6.25
2022-11-27T09:36:26.663Z,7.33
2022-11-27T09:37:30.344Z,10.33
2022-11-27T09:38:33.335Z,10.64
2022-11-27T09:39:36.831Z,9.51
2022-11-27T09:40:39.900Z,8.81
2022-11-27T09:41:42.669Z,6.15
2022-11-27T09:42:45.448Z,9.18
2022-11-27T09:43:48.527Z,8.39
2022-11-27T09:44:54.168Z,10.44
2022-11-27T09:46:08.299Z,10.20
2022-11-27T09:47:11.070Z,11.98
2022-11-27T09:48:14.588Z,11.16
2022-11-27T09:49:20.159Z,11.07
2022-11-27T09:50:23.798Z,13.36
2022-11-27T09:51:27.508Z,11.26
2022-11-27T09:52:31.389Z,11.27
2022-11-27T09:53:34.669Z,13.32
2022-11-27T09:54:37.999Z,12.01
2022-11-27T09:55:41.905Z,7.75
2022-11-27T09:56:45.467Z,12.39
2022-11-27T09:57:48.527Z,13.63
2022-11-27T09:58:51.401Z,7.78
2022-11-27T09:59:54.782Z,5.98
2022-11-27T10:00:58.277Z,8.16
2022-11-27T10:02:01.884Z,7.09
2022-11-27T10:03:04.993Z,8.97
2022-11-27T10:04:07.831Z,11.32
2022-11-27T10:05:14.779Z,12.65
2022-11-27T10:06:15.929Z,10.03
2022-11-27T10:07:20.381Z,9.86
2022-11-27T10:08:23.519Z,9.81
2022-11-27T10:09:27.104Z,7.53
2022-11-27T10:10:30.808Z,10.98
2022-11-27T10:11:37.269Z,12.65
2022-11-27T10:12:40.239Z,10.66
2022-11-27T10:13:44.144Z,9.33
2022-11-27T10:14:47.828Z,12.39
2022-11-27T10:15:50.909Z,9.60
2022-11-27T10:16:54.490Z,9.00
2022-11-27T10:17:59.633Z,11.34
2022-11-27T10:19:02.709Z,11.82
2022-11-27T10:20:05.690Z,8.84
2022-11-27T10:21:08.763Z,11.72
2022-11-27T10:22:14.276Z,12.83
2022-11-27T10:23:16.564Z,11.75
2022-11-27T10:24:19.549Z,8.27
2022-11-27T10:25:22.617Z,6.23
2022-11-27T10:26:26.002Z,7.23
2022-11-27T10:27:29.086Z,6.68
2022-11-27T10:28:31.856Z,6.97
2022-11-27T10:29:35.913Z,4.76
2022-11-27T10:30:38.947Z,4.99
2022-11-27T10:31:43.003Z,5.01
2022-11-27T10:32:55.279Z,5.60
2022-11-27T10:33:51.670Z,6.81
2022-11-27T10:34:55.039Z,5.57
2022-11-27T10:35:58.225Z,6.42
2022-11-27T10:37:01.197Z,6.06
2022-11-27T10:38:07.108Z,6.92
2022-11-27T10:39:08.594Z,9.52
2022-11-27T10:40:11.373Z,9.73
2022-11-27T10:41:34.295Z,7.58
2022-11-27T10:42:19.155Z,6.84
2022-11-27T10:43:22.457Z,6.38
2022-11-27T10:44:25.437Z,6.95
2022-11-27T10:45:28.618Z,5.87
2022-11-27T10:46:31.683Z,4.55
2022-11-27T10:47:34.565Z,4.04
2022-11-27T10:48:37.334Z,5.62
2022-11-27T10:49:40.512Z,7.35
2022-11-27T10:50:43.286Z,3.94
2022-11-27T10:51:46.268Z,5.75
2022-11-27T10:52:52.394Z,5.95
2022-11-27T10:53:53.439Z,4.91
2022-11-27T10:54:56.330Z,8.17
2022-11-27T10:55:59.103Z,5.73
2022-11-27T10:57:02.060Z,7.08
2022-11-27T10:58:04.875Z,6.11
2022-11-27T10:59:07.607Z,8.08
2022-11-27T11:00:10.794Z,4.74
2022-11-27T11:01:13.748Z,3.93
2022-11-27T11:02:16.586Z,3.30
2022-11-27T11:03:19.424Z,4.16
2022-11-27T11:04:37.589Z,4.95
2022-11-27T11:06:11.678Z,4.51
2022-11-27T11:06:31.234Z,5.79
2022-11-27T11:07:34.546Z,4.20
2022-11-27T11:08:37.586Z,3.92
2022-11-27T11:09:40.678Z,5.08
2022-11-27T11:10:43.639Z,5.62
2022-11-27T11:11:46.607Z,4.73
2022-11-27T11:12:49.496Z,4.82
2022-11-27T11:13:52.778Z,4.08
2022-11-27T11:14:55.859Z,5.89
2022-11-27T11:15:58.729Z,6.48
2022-11-27T11:17:01.834Z,5.83
2022-11-27T11:18:04.691Z,7.25
2022-11-27T11:19:08.165Z,6.95
2022-11-27T11:20:11.554Z,6.80
2022-11-27T11:21:14.847Z,7.43
2022-11-27T11:22:18.052Z,5.37
2022-11-27T11:23:20.996Z,6.43
2022-11-27T11:24:24.197Z,4.92
2022-11-27T11:25:27.472Z,5.10
2022-11-27T11:26:30.543Z,5.01
2022-11-27T11:27:33.522Z,5.02
2022-11-27T11:28:39.633Z,5.36
2022-11-27T11:29:41.458Z,6.73
2022-11-27T11:30:44.950Z,5.46
2022-11-27T11:31:48.142Z,9.47
2022-11-27T11:32:51.067Z,7.04
2022-11-27T11:33:54.049Z,7.01
2022-11-27T11:35:00.903Z,7.55
2022-11-27T11:36:01.437Z,3.97
2022-11-27T11:37:04.422Z,3.79
2022-11-27T11:38:07.391Z,3.06
2022-11-27T11:39:10.364Z,4.27
2022-11-27T11:40:16.233Z,7.75
2022-11-27T11:41:19.952Z,7.22
2022-11-27T11:42:22.995Z,6.74
2022-11-27T11:43:26.474Z,5.50
2022-11-27T11:44:29.551Z,7.61
2022-11-27T11:45:33.398Z,7.92
2022-11-27T11:46:36.764Z,6.51
2022-11-27T11:47:39.603Z,6.27
2022-11-27T11:48:42.890Z,6.08
2022-11-27T11:49:46.176Z,5.75
2022-11-27T11:50:49.459Z,7.73
2022-11-27T11:51:52.553Z,5.54
2022-11-27T11:52:55.216Z,6.24
2022-11-27T11:53:58.915Z,6.12
2022-11-27T11:55:01.877Z,5.14
2022-11-27T11:56:04.967Z,6.59
2022-11-27T11:57:07.632Z,5.59
2022-11-27T11:58:10.507Z,5.69
2022-11-27T11:59:13.275Z,4.71
2022-11-27T12:00:16.567Z,6.66
2022-11-27T12:01:26.835Z,4.87
2022-11-27T12:02:25.048Z,6.97
2022-11-27T12:03:27.760Z,4.19
2022-11-27T12:04:30.975Z,3.98
2022-11-27T12:05:34.430Z,4.39
2022-11-27T12:06:37.702Z,4.44
2022-11-27T12:07:40.754Z,4.23
2022-11-27T12:08:44.168Z,5.32
2022-11-27T12:09:47.455Z,5.11
2022-11-27T12:10:50.527Z,4.75
2022-11-27T12:11:53.719Z,4.87
2022-11-27T12:12:56.688Z,5.22
2022-11-27T12:14:00.406Z,3.87
2022-11-27T12:15:03.874Z,5.51
2022-11-27T12:16:07.069Z,6.78
2022-11-27T12:17:10.250Z,6.32
2022-11-27T12:18:13.417Z,5.75
2022-11-27T12:19:16.495Z,4.78
2022-11-27T12:20:19.984Z,6.82
2022-11-27T12:21:23.372Z,5.06
2022-11-27T12:22:26.357Z,5.78
2022-11-27T12:23:30.145Z,3.20
2022-11-27T12:24:33.226Z,4.01
2022-11-27T12:25:36.196Z,6.61
2022-11-27T12:26:39.690Z,11.38
2022-11-27T12:27:42.966Z,11.35
2022-11-27T12:28:45.748Z,10.27
2022-11-27T12:29:49.445Z,9.37
2022-11-27T12:30:52.830Z,12.86
2022-11-27T12:31:56.455Z,10.20
2022-11-27T12:32:59.800Z,11.27
2022-11-27T12:34:02.794Z,11.48
2022-11-27T12:35:06.071Z,12.12
2022-11-27T12:36:08.837Z,11.82
2022-11-27T12:37:14.038Z,11.96
2022-11-27T12:38:16.125Z,13.47
2022-11-27T12:39:19.507Z,13.38
2022-11-27T12:40:22.381Z,14.80
2022-11-27T12:41:25.565Z,20.35
2022-11-27T12:42:28.748Z,24.35
2022-11-27T12:43:31.824Z,31.06
2022-11-27T12:44:35.225Z,33.28
2022-11-27T12:45:38.130Z,35.25
2022-11-27T12:46:41.376Z,38.37
2022-11-27T12:47:44.659Z,37.20
2022-11-27T12:48:47.743Z,35.36
2022-11-27T12:49:50.821Z,39.31
2022-11-27T12:50:54.102Z,43.90
2022-11-27T12:51:57.501Z,45.44
2022-11-27T12:53:00.874Z,51.57
2022-11-27T12:54:03.692Z,49.62
2022-11-27T12:55:06.520Z,46.52
2022-11-27T12:56:09.295Z,48.05
2022-11-27T12:57:12.370Z,53.02
2022-11-27T12:58:15.350Z,53.15
2022-11-27T12:59:18.633Z,51.85
2022-11-27T13:00:22.034Z,57.50
2022-11-27T13:01:26.779Z,57.51
2022-11-27T13:02:29.598Z,65.27
2022-11-27T13:03:32.599Z,57.45
2022-11-27T13:04:35.260Z,59.22
2022-11-27T13:05:38.130Z,60.15
2022-11-27T13:06:41.111Z,59.73
2022-11-27T13:07:43.946Z,66.16
2022-11-27T13:08:52.090Z,55.91
2022-11-27T13:09:51.586Z,55.64
2022-11-27T13:10:54.346Z,60.54
2022-11-27T13:11:57.458Z,62.35
2022-11-27T13:13:00.302Z,64.82
2022-11-27T13:14:03.277Z,61.37
2022-11-27T13:15:06.365Z,65.98
2022-11-27T13:16:09.553Z,58.95
2022-11-27T13:17:12.319Z,60.42
2022-11-27T13:18:15.407Z,51.60
2022-11-27T13:19:18.580Z,56.21
2022-11-27T13:20:21.766Z,57.65
2022-11-27T13:21:24.841Z,63.55
2022-11-27T13:22:28.017Z,65.18
2022-11-27T13:23:31.410Z,61.33
2022-11-27T13:24:34.588Z,53.70
2022-11-27T13:25:37.776Z,59.98
2022-11-27T13:26:41.249Z,58.36
2022-11-27T13:27:44.751Z,58.82
2022-11-27T13:28:47.926Z,57.51
2022-11-27T13:29:51.109Z,60.13
2022-11-27T13:30:54.801Z,62.93
2022-11-27T13:31:57.951Z,66.44
2022-11-27T13:33:01.069Z,63.31
2022-11-27T13:34:03.955Z,58.85
2022-11-27T13:35:06.925Z,62.38
2022-11-27T13:36:09.907Z,58.40
2022-11-27T13:37:13.393Z,69.03
2022-11-27T13:38:16.562Z,62.67
2022-11-27T13:39:19.849Z,61.05
2022-11-27T13:40:23.047Z,61.52
2022-11-27T13:41:26.112Z,63.22
2022-11-27T13:42:29.520Z,55.47
2022-11-27T13:43:32.781Z,53.28
2022-11-27T13:44:36.291Z,56.08
2022-11-27T13:45:39.407Z,57.76
2022-11-27T13:46:42.530Z,62.27
2022-11-27T13:47:45.503Z,59.42
2022-11-27T13:48:48.484Z,51.41
2022-11-27T13:49:51.366Z,53.45
2022-11-27T13:50:54.389Z,55.28
2022-11-27T13:51:57.939Z,64.92
2022-11-27T13:53:01.110Z,63.74
2022-11-27T13:54:03.882Z,67.68
2022-11-27T13:55:06.653Z,60.94
2022-11-27T13:56:09.333Z,65.85
2022-11-27T13:57:12.209Z,62.01
2022-11-27T13:58:15.381Z,58.45
2022-11-27T13:59:18.250Z,57.77
2022-11-27T14:00:21.129Z,55.64
2022-11-27T14:01:23.957Z,52.82
2022-11-27T14:02:26.722Z,57.65
2022-11-27T14:03:29.451Z,56.61
2022-11-27T14:04:32.340Z,59.88
2022-11-27T14:05:35.205Z,61.20
2022-11-27T14:06:38.170Z,59.15
2022-11-27T14:07:41.252Z,50.89
2022-11-27T14:08:44.224Z,55.97
2022-11-27T14:09:47.020Z,60.56
2022-11-27T14:10:49.885Z,51.32
2022-11-27T14:11:52.960Z,51.96
2022-11-27T14:12:56.382Z,51.97
2022-11-27T14:13:59.731Z,55.34
2022-11-27T14:15:03.021Z,54.40
2022-11-27T14:16:05.739Z,50.62
2022-11-27T14:17:08.662Z,60.28
2022-11-27T14:18:11.851Z,54.74
2022-11-27T14:19:14.931Z,57.99
2022-11-27T14:20:17.823Z,57.38
2022-11-27T14:21:21.202Z,54.95
2022-11-27T14:22:23.953Z,58.20
2022-11-27T14:23:26.830Z,51.68
2022-11-27T14:24:29.815Z,56.02
2022-11-27T14:25:32.578Z,47.83
2022-11-27T14:26:35.452Z,48.61
2022-11-27T14:27:38.128Z,47.75
2022-11-27T14:28:41.122Z,49.70
2022-11-27T14:29:44.182Z,49.17
2022-11-27T14:30:47.051Z,48.78
2022-11-27T14:31:50.185Z,48.85
2022-11-27T14:32:53.014Z,49.22
2022-11-27T14:35:00.400Z,55.69
2022-11-27T14:36:03.277Z,41.97
2022-11-27T14:37:06.361Z,45.61
2022-11-27T14:38:09.220Z,46.45
2022-11-27T14:39:12.002Z,52.35
2022-11-27T14:40:14.772Z,52.42
2022-11-27T14:41:17.958Z,50.75
2022-11-27T14:42:24.019Z,48.15
2022-11-27T14:43:25.235Z,47.06
2022-11-27T14:44:28.211Z,56.08
2022-11-27T14:45:31.093Z,57.25
2022-11-27T14:46:33.924Z,49.75
2022-11-27T14:47:36.640Z,44.48
2022-11-27T14:48:39.710Z,47.68
2022-11-27T14:49:42.920Z,55.72
2022-11-27T14:50:46.180Z,54.39
2022-11-27T14:51:49.152Z,51.37
2022-11-27T14:52:52.356Z,52.93
2022-11-27T14:53:55.421Z,50.54
2022-11-27T14:54:58.288Z,50.79
2022-11-27T14:56:01.262Z,52.87
2022-11-27T14:57:04.549Z,50.02
2022-11-27T14:58:07.218Z,47.92
2022-11-27T14:59:10.401Z,47.66
2022-11-27T15:00:13.175Z,50.76
2022-11-27T15:01:16.153Z,49.60
2022-11-27T15:02:19.999Z,49.97
2022-11-27T15:03:24.049Z,43.55
2022-11-27T15:04:27.131Z,43.65
2022-11-27T15:05:30.332Z,43.35
2022-11-27T15:06:33.299Z,45.78
2022-11-27T15:07:43.984Z,47.98
2022-11-27T15:08:41.092Z,48.58
2022-11-27T15:09:44.298Z,49.82
2022-11-27T15:10:48.785Z,45.13
2022-11-27T15:11:56.122Z,43.72
2022-11-27T15:12:55.973Z,45.14
2022-11-27T15:13:59.152Z,47.58
2022-11-27T15:15:01.818Z,46.95
2022-11-27T15:16:05.096Z,54.02
2022-11-27T15:17:08.083Z,50.85
2022-11-27T15:18:11.161Z,48.22
2022-11-27T15:19:14.347Z,56.14
2022-11-27T15:20:17.422Z,55.72
2022-11-27T15:21:20.288Z,52.72
2022-11-27T15:22:23.092Z,48.05
2022-11-27T15:23:26.072Z,43.82
2022-11-27T15:24:29.018Z,49.36
2022-11-27T15:25:31.906Z,56.82
2022-11-27T15:26:34.973Z,48.91
2022-11-27T15:27:37.852Z,47.62
2022-11-27T15:28:41.036Z,46.85
2022-11-27T15:29:44.732Z,50.03
2022-11-27T15:30:47.711Z,44.76
2022-11-27T15:31:50.652Z,45.12
2022-11-27T15:32:53.687Z,48.40
2022-11-27T15:33:57.050Z,55.52
2022-11-27T15:35:00.140Z,50.76
2022-11-27T15:36:03.227Z,52.58
2022-11-27T15:37:06.389Z,47.35
2022-11-27T15:38:09.050Z,48.82
2022-11-27T15:39:12.027Z,50.09
2022-11-27T15:40:15.532Z,48.50
2022-11-27T15:41:18.523Z,51.21
2022-11-27T15:42:21.685Z,49.60
2022-11-27T15:43:25.178Z,46.35
2022-11-27T15:44:28.368Z,50.91
2022-11-27T15:45:31.664Z,44.18
2022-11-27T15:46:34.816Z,50.13
2022-11-27T15:47:38.002Z,48.09
2022-11-27T15:48:40.975Z,47.09
2022-11-27T15:49:44.159Z,48.29
2022-11-27T15:50:51.656Z,51.48
2022-11-27T15:51:52.058Z,50.99
2022-11-27T15:52:55.339Z,55.20
2022-11-27T15:53:58.534Z,49.43
2022-11-27T15:55:01.606Z,45.52
2022-11-27T15:56:04.470Z,44.58
2022-11-27T15:57:07.656Z,39.36
2022-11-27T15:58:10.430Z,44.50
2022-11-27T15:59:13.828Z,46.01
2022-11-27T16:00:16.598Z,45.02
2022-11-27T16:01:19.977Z,50.23
2022-11-27T16:02:23.203Z,44.45
2022-11-27T16:03:26.442Z,47.26
2022-11-27T16:04:29.843Z,45.69
2022-11-27T16:05:33.118Z,43.98
2022-11-27T16:06:36.208Z,48.85
2022-11-27T16:07:39.141Z,42.69
2022-11-27T16:08:42.241Z,40.98
2022-11-27T16:09:45.529Z,50.78
2022-11-27T16:10:48.821Z,46.55
2022-11-27T16:11:52.102Z,48.10
2022-11-27T16:12:55.445Z,42.89
2022-11-27T16:13:58.460Z,45.36
2022-11-27T16:15:01.964Z,41.97
2022-11-27T16:16:05.299Z,42.29
2022-11-27T16:17:08.114Z,42.66
2022-11-27T16:18:11.187Z,42.30
2022-11-27T16:19:14.170Z,43.90
2022-11-27T16:20:17.144Z,41.57
2022-11-27T16:21:19.916Z,39.52
2022-11-27T16:22:23.211Z,39.29
2022-11-27T16:23:26.512Z,40.59
2022-11-27T16:24:29.664Z,41.88
2022-11-27T16:25:33.053Z,46.35
2022-11-27T16:26:36.235Z,44.44
2022-11-27T16:27:38.910Z,47.61
2022-11-27T16:28:41.773Z,42.30
2022-11-27T16:29:44.968Z,44.63
2022-11-27T16:30:47.944Z,43.50
2022-11-27T16:31:50.856Z,47.78
2022-11-27T16:32:53.789Z,41.04
2022-11-27T16:33:56.664Z,43.22
2022-11-27T16:35:00.052Z,40.34
2022-11-27T16:36:02.840Z,43.28
2022-11-27T16:37:05.822Z,43.35
2022-11-27T16:38:08.580Z,42.65
2022-11-27T16:39:12.496Z,37.98
2022-11-27T16:40:15.264Z,45.65
2022-11-27T16:41:18.126Z,41.39
2022-11-27T16:42:21.404Z,40.90
2022-11-27T16:43:24.496Z,42.52
2022-11-27T16:44:27.667Z,44.15
2022-11-27T16:45:30.988Z,46.91
2022-11-27T16:46:34.454Z,42.28
2022-11-27T16:47:37.823Z,43.35
2022-11-27T16:48:41.431Z,39.15
2022-11-27T16:49:44.703Z,39.29
2022-11-27T16:50:47.888Z,41.41
2022-11-27T16:51:51.067Z,40.88
2022-11-27T16:52:54.739Z,41.32
2022-11-27T16:53:57.862Z,45.31
2022-11-27T16:55:01.130Z,44.04
2022-11-27T16:56:04.510Z,43.02
2022-11-27T16:57:07.586Z,47.05
2022-11-27T16:58:10.971Z,42.12
2022-11-27T16:59:13.745Z,33.11
2022-11-27T17:00:16.824Z,36.68
2022-11-27T17:01:20.827Z,42.22
2022-11-27T17:02:24.054Z,47.37
2022-11-27T17:03:27.407Z,39.06
2022-11-27T17:04:30.680Z,42.12
2022-11-27T17:05:33.974Z,39.14
2022-11-27T17:06:37.352Z,38.47
2022-11-27T17:07:40.457Z,44.86
2022-11-27T17:08:43.706Z,40.50
2022-11-27T17:09:46.791Z,40.83
2022-11-27T17:10:50.073Z,38.55
2022-11-27T17:11:53.068Z,44.25
2022-11-27T17:12:56.151Z,40.35
2022-11-27T17:13:59.127Z,37.36
2022-11-27T17:15:01.890Z,35.11
2022-11-27T17:16:04.621Z,37.41
2022-11-27T17:17:07.648Z,37.62
2022-11-27T17:18:10.508Z,42.96
2022-11-27T17:19:13.488Z,37.91
2022-11-27T17:20:16.363Z,42.01
2022-11-27T17:21:19.539Z,36.65
2022-11-27T17:22:22.311Z,38.37
2022-11-27T17:23:25.188Z,45.33
2022-11-27T17:24:27.853Z,42.45
2022-11-27T17:25:30.936Z,38.67
2022-11-27T17:26:34.334Z,42.72
2022-11-27T17:27:37.203Z,43.26
2022-11-27T17:28:40.075Z,37.05
2022-11-27T17:29:43.797Z,38.41
2022-11-27T17:30:46.743Z,36.76
2022-11-27T17:31:49.743Z,41.55
2022-11-27T17:32:52.495Z,45.87
2022-11-27T17:33:55.163Z,44.02
2022-11-27T17:34:58.349Z,36.57
2022-11-27T17:36:01.326Z,37.35
2022-11-27T17:37:04.230Z,41.87
2022-11-27T17:38:07.271Z,42.91
2022-11-27T17:39:10.253Z,38.70
2022-11-27T17:40:13.019Z,38.73
2022-11-27T17:41:16.010Z,38.08
2022-11-27T17:42:22.698Z,33.28
2022-11-27T17:43:23.190Z,36.76
2022-11-27T17:44:26.467Z,38.57
2022-11-27T17:45:29.332Z,42.98
2022-11-27T17:46:32.221Z,37.55
2022-11-27T17:47:35.088Z,38.29
2022-11-27T17:48:38.068Z,44.32
2022-11-27T17:49:41.242Z,45.23
2022-11-27T17:50:44.230Z,38.71
2022-11-27T17:51:47.097Z,39.07
2022-11-27T17:52:49.979Z,41.53
2022-11-27T17:53:52.950Z,36.45
2022-11-27T17:54:56.036Z,35.78
2022-11-27T17:55:58.804Z,39.88
2022-11-27T17:57:01.678Z,37.49
2022-11-27T17:58:04.652Z,36.72
2022-11-27T17:59:07.531Z,38.18
2022-11-27T18:00:10.307Z,32.92
2022-11-27T18:01:13.233Z,37.57
2022-11-27T18:02:16.008Z,39.92
2022-11-27T18:03:19.364Z,35.34
2022-11-27T18:04:22.028Z,35.18
2022-11-27T18:05:24.886Z,41.49
2022-11-27T18:06:27.753Z,35.03
2022-11-27T18:07:31.026Z,36.68
2022-11-27T18:08:34.021Z,35.23
2022-11-27T18:09:36.790Z,37.75
2022-11-27T18:10:39.561Z,33.59
2022-11-27T18:11:42.335Z,37.25
2022-11-27T18:12:45.211Z,40.78
2022-11-27T18:13:47.982Z,32.55
2022-11-27T18:14:50.901Z,33.67
2022-11-27T18:15:53.622Z,36.40
2022-11-27T18:16:56.605Z,37.12
2022-11-27T18:17:59.682Z,39.29
2022-11-27T18:19:02.361Z,32.33
2022-11-27T18:20:05.343Z,35.97
2022-11-27T18:21:08.664Z,35.59
2022-11-27T18:22:11.583Z,36.05
2022-11-27T18:23:14.364Z,39.99
2022-11-27T18:24:25.454Z,38.14
2022-11-27T18:25:22.271Z,38.65
2022-11-27T18:26:45.620Z,34.01
2022-11-27T18:27:29.453Z,30.83
2022-11-27T18:28:32.223Z,32.74
2022-11-27T18:29:35.197Z,34.78
2022-11-27T18:30:38.725Z,31.20
2022-11-27T18:31:41.860Z,32.72
2022-11-27T18:32:45.050Z,32.52
2022-11-27T18:33:47.726Z,32.74
2022-11-27T18:34:50.491Z,34.90
2022-11-27T18:35:53.571Z,35.69
2022-11-27T18:36:56.470Z,34.69
2022-11-27T18:37:59.420Z,33.61
2022-11-27T18:39:02.502Z,36.48
2022-11-27T18:40:05.592Z,31.07
2022-11-27T18:41:08.349Z,34.93
2022-11-27T18:42:11.953Z,37.28
2022-11-27T18:43:14.811Z,38.54
2022-11-27T18:44:17.909Z,35.98
2022-11-27T18:45:33.304Z,32.17
2022-11-27T18:46:25.602Z,39.54
2022-11-27T18:47:29.213Z,34.59
2022-11-27T18:48:32.066Z,29.60
2022-11-27T18:49:35.341Z,35.41
2022-11-27T18:50:38.529Z,34.91
2022-11-27T18:51:41.300Z,33.95
2022-11-27T18:52:44.283Z,33.84
2022-11-27T18:53:47.469Z,35.42
2022-11-27T18:54:50.433Z,36.90
2022-11-27T18:55:53.308Z,32.36
2022-11-27T18:56:56.389Z,34.33
2022-11-27T18:57:59.273Z,32.85
2022-11-27T18:59:02.566Z,31.27
2022-11-27T19:00:05.536Z,30.75
2022-11-27T19:01:09.304Z,31.56
2022-11-27T19:02:12.525Z,36.62
2022-11-27T19:03:15.692Z,33.24
2022-11-27T19:04:18.563Z,36.56
2022-11-27T19:05:21.446Z,33.06
2022-11-27T19:06:24.625Z,30.24
2022-11-27T19:07:27.555Z,36.58
2022-11-27T19:08:30.368Z,35.13
2022-11-27T19:09:33.027Z,31.89
2022-11-27T19:10:36.421Z,32.72
2022-11-27T19:11:39.712Z,33.18
2022-11-27T19:12:42.840Z,36.62
2022-11-27T19:13:45.955Z,33.11
2022-11-27T19:14:49.048Z,32.44
2022-11-27T19:15:52.156Z,31.94
2022-11-27T19:16:55.138Z,30.74
2022-11-27T19:17:58.492Z,34.27
2022-11-27T19:19:01.577Z,32.78
2022-11-27T19:20:04.635Z,31.51
2022-11-27T19:21:08.230Z,30.54
2022-11-27T19:22:10.917Z,34.22
2022-11-27T19:23:14.405Z,28.92
2022-11-27T19:24:17.279Z,31.16
2022-11-27T19:25:20.048Z,30.91
2022-11-27T19:26:23.223Z,32.38
2022-11-27T19:27:26.303Z,29.44
2022-11-27T19:28:29.492Z,33.95
2022-11-27T19:29:32.670Z,34.78
2022-11-27T19:30:35.847Z,33.13
2022-11-27T19:31:38.921Z,31.59
2022-11-27T19:32:42.017Z,29.72
2022-11-27T19:33:45.299Z,35.25
2022-11-27T19:34:48.571Z,34.62
2022-11-27T19:35:51.547Z,35.78
2022-11-27T19:36:54.944Z,29.10
2022-11-27T19:37:57.928Z,30.92
2022-11-27T19:39:01.304Z,29.23
2022-11-27T19:40:04.589Z,35.01
2022-11-27T19:41:07.761Z,36.05
2022-11-27T19:42:10.954Z,32.63
2022-11-27T19:43:13.966Z,31.48
2022-11-27T19:44:16.809Z,31.27
2022-11-27T19:45:19.887Z,34.83
2022-11-27T19:46:23.688Z,31.71
2022-11-27T19:47:27.068Z,30.90
2022-11-27T19:48:30.245Z,32.84
2022-11-27T19:49:33.857Z,27.72
2022-11-27T19:50:36.920Z,29.01
2022-11-27T19:51:39.906Z,27.64
2022-11-27T19:52:43.071Z,33.36
2022-11-27T19:53:46.253Z,37.66
2022-11-27T19:54:49.751Z,29.68
2022-11-27T19:55:52.725Z,29.02
2022-11-27T19:56:56.325Z,30.85
2022-11-27T19:57:59.512Z,32.93
2022-11-27T19:59:02.691Z,31.16
2022-11-27T20:00:05.565Z,33.14
2022-11-27T20:01:08.500Z,28.60
2022-11-27T20:02:11.343Z,30.72
2022-11-27T20:03:14.604Z,27.65
2022-11-27T20:04:17.570Z,31.78
2022-11-27T20:05:20.333Z,32.19
2022-11-27T20:06:23.115Z,29.14
2022-11-27T20:07:25.912Z,28.71
2022-11-27T20:08:28.762Z,32.01
2022-11-27T20:09:32.252Z,32.05
2022-11-27T20:10:35.525Z,37.51
2022-11-27T20:11:39.449Z,32.34
2022-11-27T20:12:42.605Z,33.98
2022-11-27T20:13:46.220Z,34.45
2022-11-27T20:14:49.175Z,31.81
2022-11-27T20:15:52.661Z,36.72
2022-11-27T20:16:55.913Z,33.87
2022-11-27T20:17:58.859Z,25.91
2022-11-27T20:19:01.799Z,32.96
2022-11-27T20:20:04.987Z,31.86
2022-11-27T20:21:08.071Z,32.48
2022-11-27T20:22:10.830Z,27.22
2022-11-27T20:23:13.815Z,28.93
2022-11-27T20:24:16.789Z,31.75
2022-11-27T20:25:20.672Z,31.55
2022-11-27T20:26:24.905Z,35.65
2022-11-27T20:27:27.871Z,31.49
2022-11-27T20:28:31.075Z,29.77
2022-11-27T20:29:34.244Z,28.30
2022-11-27T20:30:38.644Z,32.71
2022-11-27T20:31:41.753Z,31.64
2022-11-27T20:32:44.906Z,35.38
2022-11-27T20:33:47.679Z,36.01
2022-11-27T20:34:50.957Z,29.03
2022-11-27T20:35:53.857Z,30.75
2022-11-27T20:36:56.934Z,30.25
2022-11-27T20:37:59.704Z,33.12
2022-11-27T20:39:02.469Z,33.33
2022-11-27T20:40:05.640Z,30.69
2022-11-27T20:41:09.749Z,29.54
2022-11-27T20:42:12.519Z,26.20
2022-11-27T20:43:15.404Z,27.48
2022-11-27T20:44:18.373Z,33.99
2022-11-27T20:45:21.651Z,30.62
2022-11-27T20:46:24.490Z,31.65
2022-11-27T20:47:27.405Z,29.73
2022-11-27T20:48:30.708Z,30.32
2022-11-27T20:49:33.251Z,29.04
2022-11-27T20:50:36.434Z,28.77
2022-11-27T20:51:39.717Z,31.79
2022-11-27T20:52:42.814Z,27.55
2022-11-27T20:53:45.675Z,33.39
2022-11-27T20:54:48.855Z,36.37
2022-11-27T20:55:51.735Z,31.65
2022-11-27T20:56:55.231Z,29.34
2022-11-27T20:57:58.302Z,27.07
2022-11-27T20:59:01.395Z,32.56
2022-11-27T21:00:04.661Z,30.66
2022-11-27T21:01:08.038Z,32.46
2022-11-27T21:02:11.368Z,28.59
2022-11-27T21:03:14.680Z,30.88
2022-11-27T21:04:17.809Z,28.25
2022-11-27T21:05:20.797Z,32.79
2022-11-27T21:06:23.971Z,32.30
2022-11-27T21:07:28.059Z,32.56
2022-11-27T21:08:31.889Z,29.70
2022-11-27T21:09:35.050Z,31.59
2022-11-27T21:10:39.068Z,29.20
2022-11-27T21:11:42.645Z,30.29
2022-11-27T21:12:45.840Z,28.82
2022-11-27T21:13:49.102Z,27.02
2022-11-27T21:14:52.292Z,28.53
2022-11-27T21:15:55.365Z,29.82
2022-11-27T21:17:04.350Z,32.13
2022-11-27T21:18:03.686Z,29.00
2022-11-27T21:19:06.955Z,25.45
2022-11-27T21:20:09.935Z,27.51
2022-11-27T21:21:13.539Z,25.99
2022-11-27T21:22:16.344Z,27.32
2022-11-27T21:23:19.497Z,31.75
2022-11-27T21:24:22.834Z,26.43
2022-11-27T21:25:25.886Z,27.68
2022-11-27T21:26:29.121Z,31.08
2022-11-27T21:27:31.906Z,31.12
2022-11-27T21:28:35.287Z,23.71
2022-11-27T21:29:39.181Z,26.97
2022-11-27T21:30:42.092Z,26.06
2022-11-27T21:31:47.066Z,25.25
2022-11-27T21:32:49.573Z,29.31
2022-11-27T21:33:52.218Z,25.74
2022-11-27T21:34:54.989Z,27.08
2022-11-27T21:35:57.971Z,27.32
2022-11-27T21:37:01.245Z,25.29
2022-11-27T21:38:04.339Z,23.78
2022-11-27T21:39:08.043Z,26.98
2022-11-27T21:40:11.417Z,23.21
2022-11-27T21:41:14.389Z,26.53
2022-11-27T21:42:17.566Z,24.41
2022-11-27T21:43:20.550Z,28.96
2022-11-27T21:44:27.037Z,30.65
2022-11-27T21:45:30.425Z,29.28
2022-11-27T21:46:33.303Z,26.05
2022-11-27T21:47:36.348Z,26.75
2022-11-27T21:48:39.433Z,28.85
2022-11-27T21:49:42.507Z,31.57
2022-11-27T21:50:45.888Z,27.10
2022-11-27T21:51:48.966Z,26.18
2022-11-27T21:52:51.956Z,27.10
2022-11-27T21:53:54.923Z,26.34
2022-11-27T21:54:58.036Z,29.12
2022-11-27T21:56:00.787Z,22.47
2022-11-27T21:57:03.563Z,23.67
2022-11-27T21:58:06.528Z,29.43
2022-11-27T21:59:09.311Z,24.50
2022-11-27T22:00:14.535Z,22.88
2022-11-27T22:01:17.754Z,27.07
2022-11-27T22:02:20.412Z,30.12
2022-11-27T22:03:23.400Z,22.66
2022-11-27T22:04:26.535Z,26.25
2022-11-27T22:05:29.413Z,23.51
2022-11-27T22:06:32.196Z,26.28
2022-11-27T22:07:35.323Z,25.65
2022-11-27T22:08:38.240Z,26.41
2022-11-27T22:09:41.118Z,28.14
2022-11-27T22:10:43.985Z,29.17
2022-11-27T22:11:47.173Z,26.64
2022-11-27T22:12:50.139Z,28.41
2022-11-27T22:13:52.916Z,30.54
2022-11-27T22:14:56.437Z,25.52
2022-11-27T22:15:59.395Z,26.14
2022-11-27T22:17:02.254Z,23.23
2022-11-27T22:18:05.134Z,22.50
2022-11-27T22:19:08.151Z,23.56
2022-11-27T22:20:11.290Z,22.13
2022-11-27T22:21:14.164Z,25.86
2022-11-27T22:22:17.042Z,24.12
2022-11-27T22:23:20.118Z,22.52
2022-11-27T22:24:23.403Z,24.23
2022-11-27T22:25:26.187Z,21.75
2022-11-27T22:26:29.154Z,22.78
2022-11-27T22:27:32.026Z,18.83
2022-11-27T22:28:35.121Z,19.64
2022-11-27T22:29:37.883Z,18.08
2022-11-27T22:30:41.006Z,17.34
2022-11-27T22:31:44.441Z,18.63
2022-11-27T22:32:47.317Z,22.88
2022-11-27T22:33:50.122Z,20.49
2022-11-27T22:34:53.097Z,21.18
2022-11-27T22:35:55.848Z,23.25
2022-11-27T22:36:58.940Z,21.77
2022-11-27T22:38:01.693Z,20.32
2022-11-27T22:39:04.671Z,24.06
2022-11-27T22:40:07.669Z,22.25
2022-11-27T22:41:10.840Z,24.35
2022-11-27T22:42:13.712Z,21.50
2022-11-27T22:43:17.028Z,18.06
2022-11-27T22:44:19.972Z,22.07
2022-11-27T22:45:22.940Z,21.74
2022-11-27T22:46:26.521Z,24.64
2022-11-27T22:47:30.049Z,26.02
2022-11-27T22:48:33.009Z,24.74
2022-11-27T22:49:36.081Z,21.68
2022-11-27T22:50:39.274Z,23.64
2022-11-27T22:51:42.349Z,25.02
2022-11-27T22:52:45.854Z,22.21
2022-11-27T22:53:48.921Z,23.60
2022-11-27T22:54:52.295Z,19.32
2022-11-27T22:55:55.271Z,23.51
2022-11-27T22:56:58.265Z,20.16
2022-11-27T22:58:01.328Z,18.61
2022-11-27T22:59:31.829Z,22.58
2022-11-27T23:00:09.343Z,22.67
2022-11-27T23:01:12.731Z,24.68
2022-11-27T23:02:16.119Z,28.36
2022-11-27T23:03:19.831Z,22.63
2022-11-27T23:04:22.890Z,22.98
2022-11-27T23:05:25.867Z,25.22
2022-11-27T23:06:28.865Z,25.84
2022-11-27T23:07:32.200Z,23.28
2022-11-27T23:08:34.994Z,24.66
2022-11-27T23:09:39.117Z,22.14
2022-11-27T23:10:42.173Z,24.96
2022-11-27T23:11:45.369Z,25.70
2022-11-27T23:12:48.236Z,20.87